KPGA/PGA METAR and TAF weather

Enter ICAO airport designator
Station Type Date Time Source
KPGA METAR 2020/07/04 02:53 UTC NOAA

KPGA 040253Z AUTO 17008KT 10SM CLR 26/13 A3010 RMK AO2 SLP126 60002 T02560133 55003 TSNO


Station Type Date Time Source
KPGA Decoded METAR 2020/07/04 02:53 UTC NOAA

PAGE MUNICIPAL AIRPORT, AZ, United States (KPGA) 36-56N 111-27W 1307M
Jul 03, 2020 - 10:53 PM EDT / 2020.07.04 0253 UTC
Wind: from the S (170 degrees) at 9 MPH (8 KT):0
Visibility: 10 mile(s):0
Sky conditions: clear
Temperature: 78.1 F (25.6 C)
Dew Point: 55.9 F (13.3 C)
Relative Humidity: 46%
Pressure (altimeter): 30.1 in. Hg (1019 hPa)
Pressure tendency: 0.01 inches (0.3 hPa) lower than three hours ago
ob: KPGA 040253Z AUTO 17008KT 10SM CLR 26/13 A3010 RMK AO2 SLP126 60002 T02560133 55003 TSNO
cycle: 3

Station Type Date Time Source
KPGA TAF 2020/07/03 21:18 UTC NOAA

TAF
AMD KPGA 032117Z 0321/0418 04008G16KT P6SM SCT100
FM032300 25008KT P6SM SCT100
TEMPO 0323/0401 VRB10G25KT P6SM TS SCT100CB BKN200

Example: see airport list